createdAt,value
2023-03-04T00:03:11.234Z,1.56
2023-03-04T00:08:13.746Z,2.58
2023-03-04T00:13:16.916Z,1.52
2023-03-04T00:18:21.219Z,2.80
2023-03-04T00:23:23.412Z,2.53
2023-03-04T00:28:25.629Z,2.55
2023-03-04T00:33:28.214Z,1.60
2023-03-04T00:38:31.282Z,2.72
2023-03-04T00:43:33.551Z,1.51
2023-03-04T00:48:35.743Z,2.65
2023-03-04T00:53:38.019Z,1.84
2023-03-04T00:58:40.556Z,1.52
2023-03-04T01:03:42.691Z,1.47
2023-03-04T01:08:45.979Z,2.02
2023-03-04T01:13:49.345Z,1.15
2023-03-04T01:18:51.564Z,1.38
2023-03-04T01:23:53.864Z,2.18
2023-03-04T01:28:56.131Z,2.27
2023-03-04T01:33:58.408Z,1.33
2023-03-04T01:39:00.658Z,1.33
2023-03-04T01:44:03.493Z,1.38
2023-03-04T01:49:09.519Z,0.79
2023-03-04T01:54:11.875Z,0.79
2023-03-04T01:59:19.742Z,0.28
2023-03-04T02:04:27.565Z,0.78
2023-03-04T02:09:31.824Z,0.92
2023-03-04T02:14:34.484Z,0.67
2023-03-04T02:19:50.317Z,0.55
2023-03-04T02:25:16.043Z,0.38
2023-03-04T02:30:23.953Z,1.14
2023-03-04T02:35:26.552Z,1.64
2023-03-04T02:40:32.183Z,1.54
2023-03-04T02:45:40.979Z,1.32
2023-03-04T02:50:49.375Z,0.51
2023-03-04T02:55:51.872Z,0.70
2023-03-04T03:00:58.371Z,0.26
2023-03-04T03:06:02.881Z,0.86
2023-03-04T03:11:06.829Z,0.47
2023-03-04T03:16:10.118Z,0.31
2023-03-04T03:21:12.483Z,0.75
2023-03-04T03:26:15.103Z,1.21
2023-03-04T03:31:17.497Z,0.06
2023-03-04T03:36:22.279Z,0.05
2023-03-04T03:41:24.559Z,0.17
2023-03-04T03:46:27.436Z,-0.12
2023-03-04T03:51:29.681Z,0.61
2023-03-04T03:56:31.922Z,0.54
2023-03-04T04:01:34.440Z,0.32
2023-03-04T04:06:36.641Z,0.02
2023-03-04T04:11:38.902Z,-0.11
2023-03-04T04:16:41.326Z,0.09
2023-03-04T04:21:43.574Z,-0.25
2023-03-04T04:26:45.996Z,0.10
2023-03-04T04:31:48.249Z,-0.15
2023-03-04T04:36:50.607Z,-0.18
2023-03-04T04:41:52.873Z,0.59
2023-03-04T04:46:55.134Z,0.66
2023-03-04T04:51:57.280Z,-0.64
2023-03-04T04:56:59.468Z,-0.03
2023-03-04T05:02:01.868Z,-0.41
2023-03-04T05:07:04.370Z,0.08
2023-03-04T05:12:06.772Z,-0.68
2023-03-04T05:17:08.981Z,-0.13
2023-03-04T05:22:11.126Z,-0.04
2023-03-04T05:27:13.426Z,-0.10
2023-03-04T05:32:15.770Z,0.23
2023-03-04T05:37:18.164Z,-0.27
2023-03-04T05:42:20.502Z,-0.54
2023-03-04T05:47:23.147Z,-0.84
2023-03-04T05:52:25.354Z,-0.40
2023-03-04T05:57:27.560Z,-0.11
2023-03-04T06:02:29.774Z,-1.50
2023-03-04T06:07:32.406Z,-0.68
2023-03-04T06:12:34.701Z,-1.25
2023-03-04T06:17:39.952Z,-1.02
2023-03-04T06:22:43.711Z,-0.49
2023-03-04T06:27:45.940Z,-0.15
2023-03-04T06:32:48.286Z,-0.28
2023-03-04T06:37:50.615Z,-0.15
2023-03-04T06:42:52.877Z,0.46
2023-03-04T06:47:55.337Z,0.34
2023-03-04T06:52:58.205Z,0.79
2023-03-04T06:58:00.453Z,0.45
2023-03-04T07:03:02.741Z,0.82
2023-03-04T07:08:07.136Z,0.83
2023-03-04T07:13:09.388Z,0.16
2023-03-04T07:18:11.502Z,0.81
2023-03-04T07:23:13.791Z,1.30
2023-03-04T07:28:16.188Z,1.69
2023-03-04T07:33:18.467Z,2.00
2023-03-04T07:38:20.615Z,2.14
2023-03-04T07:43:22.890Z,2.38
2023-03-04T07:48:25.088Z,2.48
2023-03-04T07:53:27.262Z,2.83
2023-03-04T07:58:29.537Z,3.06
2023-03-04T08:03:31.828Z,2.66
2023-03-04T08:08:34.118Z,2.80
2023-03-04T08:13:37.300Z,2.89
2023-03-04T08:18:40.640Z,2.24
2023-03-04T08:23:43.453Z,2.85
2023-03-04T08:28:46.618Z,2.38
2023-03-04T08:33:49.412Z,2.11
2023-03-04T08:38:52.214Z,3.38
2023-03-04T08:43:54.324Z,3.05
2023-03-04T08:48:56.612Z,3.27
2023-03-04T08:53:59.000Z,2.77
2023-03-04T08:59:01.299Z,3.70
2023-03-04T09:04:03.480Z,3.51
2023-03-04T09:09:05.755Z,2.40
2023-03-04T09:14:07.867Z,2.74
2023-03-04T09:19:10.023Z,3.82
2023-03-04T09:24:12.309Z,3.28
2023-03-04T09:29:14.414Z,3.37
2023-03-04T09:34:16.705Z,3.18
2023-03-04T09:39:18.963Z,3.73
2023-03-04T09:44:36.827Z,3.60
2023-03-04T09:49:48.692Z,3.63
2023-03-04T09:55:18.374Z,3.48
2023-03-04T10:00:36.546Z,4.50
2023-03-04T10:05:51.009Z,3.10
2023-03-04T10:10:57.510Z,3.63
2023-03-04T10:16:02.386Z,3.77
2023-03-04T10:21:35.453Z,3.52
2023-03-04T10:26:39.043Z,2.67
2023-03-04T10:31:43.626Z,3.55
2023-03-04T10:36:54.814Z,3.96
2023-03-04T10:42:15.276Z,3.89
2023-03-04T10:47:17.976Z,4.18
2023-03-04T10:52:30.760Z,4.05
2023-03-04T10:57:39.788Z,5.22
2023-03-04T11:02:41.894Z,5.22
2023-03-04T11:07:56.362Z,4.37
2023-03-04T11:13:00.363Z,5.36
2023-03-04T11:18:13.294Z,5.32
2023-03-04T11:23:23.631Z,6.16
2023-03-04T11:29:01.036Z,6.32
2023-03-04T11:34:27.465Z,4.86
2023-03-04T11:39:46.693Z,5.68
2023-03-04T11:44:49.220Z,5.83
2023-03-04T11:50:16.529Z,4.76
2023-03-04T11:55:58.709Z,6.00
2023-03-04T12:01:18.577Z,6.44
2023-03-04T12:06:29.877Z,6.26
2023-03-04T12:12:07.378Z,6.90
2023-03-04T12:17:35.200Z,7.44
2023-03-04T12:23:11.133Z,6.41
2023-03-04T12:28:40.442Z,6.14
2023-03-04T12:34:23.096Z,7.30
2023-03-04T12:39:42.727Z,6.61
2023-03-04T12:45:17.685Z,6.83
2023-03-04T12:50:48.425Z,6.88
2023-03-04T12:55:51.452Z,7.28
2023-03-04T13:00:59.986Z,8.14
2023-03-04T13:06:11.690Z,7.36
2023-03-04T13:11:30.094Z,7.84
2023-03-04T13:16:40.917Z,7.54
2023-03-04T13:21:49.270Z,8.14
2023-03-04T13:26:51.502Z,7.81
2023-03-04T13:32:39.102Z,8.61
2023-03-04T13:37:59.450Z,8.69
2023-03-04T13:43:44.581Z,9.36
2023-03-04T13:48:52.967Z,8.57
2023-03-04T13:54:02.938Z,8.81
2023-03-04T13:59:08.200Z,9.02
2023-03-04T14:04:35.856Z,9.24
2023-03-04T14:09:38.121Z,9.37
2023-03-04T14:14:59.900Z,9.19
2023-03-04T14:20:03.741Z,9.09
2023-03-04T14:25:13.294Z,9.84
2023-03-04T14:30:41.556Z,10.40
2023-03-04T14:35:55.850Z,9.57
2023-03-04T14:41:08.520Z,10.37
2023-03-04T14:46:15.946Z,9.62
2023-03-04T14:51:42.408Z,10.01
2023-03-04T14:56:45.352Z,10.38
2023-03-04T15:01:47.465Z,10.10
2023-03-04T15:06:53.066Z,9.74
2023-03-04T15:12:07.572Z,9.41
2023-03-04T15:17:38.582Z,10.15
2023-03-04T15:22:40.747Z,10.07
2023-03-04T15:27:48.526Z,9.29
2023-03-04T15:32:51.240Z,9.20
2023-03-04T15:37:55.050Z,8.92
2023-03-04T15:42:59.834Z,8.97
2023-03-04T15:48:07.777Z,8.82
2023-03-04T15:53:34.840Z,9.07
2023-03-04T15:58:37.143Z,8.87
2023-03-04T16:03:41.530Z,8.60
2023-03-04T16:08:44.212Z,8.35
2023-03-04T16:13:46.667Z,8.62
2023-03-04T16:18:48.975Z,8.16
2023-03-04T16:23:52.814Z,8.07
2023-03-04T16:28:55.268Z,8.52
2023-03-04T16:33:57.529Z,8.42
2023-03-04T16:39:20.385Z,7.61
2023-03-04T16:44:22.622Z,7.69
2023-03-04T16:49:24.766Z,7.56
2023-03-04T16:54:31.466Z,7.62
2023-03-04T16:59:33.754Z,6.69
2023-03-04T17:04:35.977Z,7.52
2023-03-04T17:09:38.170Z,6.36
2023-03-04T17:14:40.832Z,6.75
2023-03-04T17:19:42.986Z,6.96
2023-03-04T17:24:45.098Z,6.44
2023-03-04T17:29:48.953Z,6.21
2023-03-04T17:34:51.209Z,6.72
2023-03-04T17:39:54.031Z,6.32
2023-03-04T17:44:56.173Z,5.82
2023-03-04T17:49:58.756Z,5.65
2023-03-04T17:55:00.928Z,5.70
2023-03-04T18:05:26.541Z,5.65
2023-03-04T18:10:28.928Z,4.99
2023-03-04T18:15:31.241Z,4.72
2023-03-04T18:20:33.892Z,4.85
2023-03-04T18:25:36.368Z,5.23
2023-03-04T18:30:38.909Z,5.43
2023-03-04T18:35:41.291Z,5.12
2023-03-04T18:40:44.390Z,4.70
2023-03-04T18:45:47.611Z,5.00
2023-03-04T18:50:51.487Z,4.20
2023-03-04T18:56:01.536Z,4.35
2023-03-04T19:01:07.280Z,4.68
2023-03-04T19:06:10.094Z,4.75
2023-03-04T19:11:12.353Z,5.14
2023-03-04T19:16:15.651Z,4.19
2023-03-04T19:21:19.150Z,5.14
2023-03-04T19:26:21.441Z,5.02
2023-03-04T19:31:23.586Z,4.75
2023-03-04T19:36:26.630Z,5.22
2023-03-04T19:41:30.083Z,4.86
2023-03-04T19:46:32.403Z,5.14
2023-03-04T19:51:34.694Z,5.04
2023-03-04T19:56:37.017Z,5.28
2023-03-04T20:01:41.808Z,5.12
2023-03-04T20:06:49.766Z,5.03
2023-03-04T20:11:58.227Z,4.96
2023-03-04T20:17:04.046Z,4.55
2023-03-04T20:22:07.102Z,5.01
2023-03-04T20:27:10.245Z,5.30
2023-03-04T20:32:12.620Z,4.68
2023-03-04T20:37:14.929Z,5.18
2023-03-04T20:42:17.272Z,4.92
2023-03-04T20:47:19.411Z,5.06
2023-03-04T20:52:21.654Z,4.61
2023-03-04T20:57:24.096Z,4.94
2023-03-04T21:02:26.399Z,4.90
2023-03-04T21:07:28.821Z,4.28
2023-03-04T21:12:31.084Z,4.18
2023-03-04T21:17:33.206Z,3.98
2023-03-04T21:22:35.430Z,3.52
2023-03-04T21:27:42.648Z,3.20
2023-03-04T21:32:44.903Z,2.75
2023-03-04T21:37:47.319Z,3.00
2023-03-04T21:42:49.533Z,3.10
2023-03-04T21:47:51.779Z,2.66
2023-03-04T21:52:54.021Z,2.86
2023-03-04T21:57:56.122Z,2.33
2023-03-04T22:02:58.244Z,2.46
2023-03-04T22:08:00.345Z,3.17
2023-03-04T22:13:02.439Z,2.72
2023-03-04T22:18:06.987Z,1.67
2023-03-04T22:23:09.734Z,2.09
2023-03-04T22:28:12.099Z,1.75
2023-03-04T22:33:14.287Z,2.06
2023-03-04T22:38:16.600Z,2.23
2023-03-04T22:43:19.014Z,1.88
2023-03-04T22:48:21.376Z,2.04
2023-03-04T22:53:25.870Z,2.29
2023-03-04T22:58:28.483Z,1.46
2023-03-04T23:03:31.396Z,1.58
2023-03-04T23:08:38.956Z,1.30
2023-03-04T23:13:42.256Z,1.89
2023-03-04T23:18:47.264Z,1.52
2023-03-04T23:23:50.392Z,1.46
2023-03-04T23:28:55.811Z,2.11
2023-03-04T23:33:59.086Z,1.53
2023-03-04T23:39:02.178Z,1.38
2023-03-04T23:44:05.880Z,1.73
2023-03-04T23:49:09.738Z,1.65
2023-03-04T23:54:16.008Z,1.19
2023-03-04T23:59:18.318Z,1.21
